createdAt,value
2018-07-26T02:58:28.232Z,0
2018-07-26T02:59:09.134Z,0
2018-07-26T03:52:51.568Z,0
2018-07-26T03:53:31.860Z,0
2018-07-26T03:54:12.377Z,0
2018-07-26T03:54:52.715Z,0
2018-07-26T03:55:33.309Z,0
2018-07-26T03:56:13.745Z,0
2018-07-26T03:56:54.133Z,0
2018-07-26T03:57:34.536Z,0
2018-07-26T03:58:14.953Z,0
2018-07-26T03:58:56.350Z,0
2018-07-26T03:59:36.878Z,0
2018-07-26T04:00:17.415Z,0
2018-07-26T04:00:57.923Z,0
2018-07-26T04:01:38.297Z,0
2018-07-26T04:02:18.690Z,0
2018-07-26T04:02:59.162Z,0
2018-07-26T04:43:06.450Z,25
2018-07-26T04:44:08.829Z,25
2018-07-26T04:45:13.933Z,25
2018-07-26T04:46:16.177Z,25
2018-07-26T04:47:18.630Z,30
2018-07-26T04:48:19.613Z,30
2018-07-26T04:49:20.312Z,30
2018-07-26T04:50:22.731Z,30
2018-07-26T04:51:26.569Z,30
2018-07-26T04:52:35.601Z,35
2018-07-26T04:59:24.460Z,40
2018-07-26T05:01:50.516Z,40
2018-07-26T05:06:41.967Z,45
2018-07-26T05:07:56.028Z,50
2018-07-26T05:08:36.677Z,50
2018-07-26T05:09:17.132Z,50
2018-07-26T05:12:01.800Z,65
2018-07-26T05:14:34.577Z,70
2018-07-26T05:15:37.717Z,75
2018-07-26T05:16:41.680Z,90
2018-07-26T05:19:19.922Z,105
2018-07-26T05:20:14.721Z,105
2018-07-26T05:25:00.474Z,115
2018-07-26T05:25:42.343Z,115
2018-07-26T05:26:22.780Z,120
2018-07-26T05:27:03.154Z,125
2018-07-26T05:27:43.579Z,125
2018-07-26T05:33:32.964Z,135
2018-07-26T05:34:13.438Z,135
2018-07-26T05:34:53.749Z,130
2018-07-26T05:35:34.138Z,115
2018-07-26T05:36:14.593Z,115
2018-07-26T05:39:51.364Z,155
2018-07-26T05:40:31.727Z,160
2018-07-26T05:44:26.899Z,175
2018-07-26T05:45:08.113Z,180
2018-07-26T05:45:48.519Z,185
2018-07-26T05:46:29.364Z,190
2018-07-26T05:47:10.314Z,195
2018-07-26T05:47:53.910Z,195
2018-07-26T05:48:34.896Z,195
2018-07-26T05:49:15.493Z,200
2018-07-26T05:49:55.830Z,200
2018-07-26T05:50:36.299Z,205
2018-07-26T05:51:16.810Z,205
2018-07-26T05:51:57.610Z,210
2018-07-26T05:52:39.725Z,210
2018-07-26T05:53:21.282Z,215
2018-07-26T05:54:01.663Z,220
2018-07-26T05:54:42.523Z,225
2018-07-26T05:55:23.317Z,230
2018-07-26T05:56:03.356Z,230
2018-07-26T05:56:46.886Z,225
2018-07-26T05:57:41.052Z,240
2018-07-26T05:58:23.761Z,250
2018-07-26T05:59:04.448Z,255
2018-07-26T05:59:47.370Z,280
2018-07-26T06:00:28.355Z,290
2018-07-26T06:01:09.232Z,300
2018-07-26T06:01:49.763Z,305
2018-07-26T06:02:30.895Z,305
2018-07-26T06:03:14.653Z,305
2018-07-26T06:03:54.650Z,310
2018-07-26T06:09:28.792Z,695
2018-07-26T06:10:07.794Z,575
2018-07-26T06:10:48.225Z,500
2018-07-26T06:11:28.722Z,525
2018-07-26T06:12:12.019Z,615
2018-07-26T06:12:57.731Z,580
2018-07-26T06:13:40.587Z,565
2018-07-26T06:14:19.636Z,550
2018-07-26T06:15:00.278Z,545
2018-07-26T06:15:42.136Z,535
2018-07-26T06:16:24.180Z,530
2018-07-26T06:17:04.410Z,530
2018-07-26T06:17:44.721Z,520
2018-07-26T06:18:25.934Z,515
2018-07-26T06:19:06.445Z,560
2018-07-26T06:19:46.907Z,595
2018-07-26T06:20:27.434Z,620
2018-07-26T06:21:07.858Z,635
2018-07-26T06:21:48.516Z,625
2018-07-26T06:37:35.247Z,655
2018-07-26T06:38:16.135Z,655
2018-07-26T06:38:56.650Z,645
2018-07-26T06:39:37.125Z,640
2018-07-26T06:40:17.961Z,635
2018-07-26T06:40:58.335Z,645
2018-07-26T06:41:39.110Z,670
2018-07-26T06:42:19.700Z,700
2018-07-26T06:43:00.061Z,725
2018-07-26T06:45:32.962Z,765
2018-07-26T06:46:15.022Z,790
2018-07-26T06:46:56.303Z,795
2018-07-26T06:47:36.557Z,810
2018-07-26T06:48:20.106Z,810
2018-07-26T06:49:01.355Z,805
2018-07-26T06:49:46.861Z,800
2018-07-26T06:50:27.361Z,805
2018-07-26T06:51:07.869Z,820
2018-07-26T06:51:48.917Z,835
2018-07-26T06:52:31.452Z,830
2018-07-26T06:53:11.341Z,830
2018-07-26T06:53:52.134Z,745
2018-07-26T06:54:32.593Z,595
2018-07-26T06:55:13.993Z,450
2018-07-26T06:55:54.665Z,405
2018-07-26T06:56:35.082Z,390
2018-07-26T06:57:23.447Z,380
2018-07-26T06:58:05.768Z,390
2018-07-26T06:58:46.275Z,395
2018-07-26T06:59:27.506Z,400
2018-07-26T07:00:09.218Z,405
2018-07-26T07:00:50.459Z,410
2018-07-26T07:01:32.148Z,410
2018-07-26T07:02:13.941Z,405
2018-07-26T07:02:55.033Z,405
2018-07-26T07:03:37.538Z,400
2018-07-26T07:04:19.805Z,395
2018-07-26T07:05:16.118Z,410
2018-07-26T07:06:04.794Z,420
2018-07-26T07:06:48.448Z,425
2018-07-26T07:09:25.713Z,420
2018-07-26T07:10:06.190Z,425
2018-07-26T07:10:46.670Z,430
2018-07-26T07:11:27.100Z,445
2018-07-26T07:12:07.601Z,440
2018-07-26T07:12:48.076Z,440
2018-07-26T07:13:28.532Z,445
2018-07-26T07:14:10.081Z,455
2018-07-26T07:14:50.437Z,455
2018-07-26T07:15:30.838Z,455
2018-07-26T07:16:11.232Z,450
2018-07-26T07:16:51.882Z,455
2018-07-26T07:17:32.837Z,450
2018-07-26T07:18:14.785Z,455
2018-07-26T07:18:55.131Z,460
2018-07-26T07:19:35.672Z,465
2018-07-26T07:20:16.099Z,465
2018-07-26T07:20:56.556Z,455
2018-07-26T07:21:37.899Z,450
2018-07-26T07:22:19.089Z,445
2018-07-26T07:22:59.421Z,435
2018-07-26T07:23:39.893Z,430
2018-07-26T07:24:20.360Z,430
2018-07-26T07:25:00.857Z,425
2018-07-26T07:25:41.504Z,425
2018-07-26T07:26:22.021Z,420
2018-07-26T07:27:02.556Z,415
2018-07-26T07:27:43.014Z,410
2018-07-26T07:28:23.620Z,395
2018-07-26T07:29:04.510Z,390
2018-07-26T07:29:44.555Z,390
2018-07-26T07:30:25.893Z,375
2018-07-26T07:31:06.342Z,370
2018-07-26T07:31:46.819Z,355
2018-07-26T07:32:27.297Z,350
2018-07-26T07:33:08.955Z,330
2018-07-26T07:33:49.380Z,310
2018-07-26T07:34:29.890Z,280
2018-07-26T07:35:11.596Z,260
2018-07-26T07:35:53.297Z,250
2018-07-26T07:36:34.862Z,240
2018-07-26T07:37:15.206Z,235
2018-07-26T07:37:57.294Z,235
2018-07-26T07:38:37.164Z,225
2018-07-26T07:39:18.006Z,220
2018-07-26T07:39:58.566Z,215
2018-07-26T07:40:40.199Z,215
2018-07-26T07:41:20.706Z,205
2018-07-26T07:42:00.759Z,200
2018-07-26T07:42:41.796Z,200
2018-07-26T07:43:21.946Z,190
2018-07-26T07:44:02.450Z,185
2018-07-26T07:44:43.156Z,180
2018-07-26T07:45:23.712Z,180
2018-07-26T07:46:05.132Z,175
2018-07-26T07:46:46.134Z,170
2018-07-26T07:47:27.559Z,170
2018-07-26T07:48:08.247Z,165
2018-07-26T07:48:49.248Z,165
2018-07-26T07:49:30.330Z,160
2018-07-26T07:50:12.171Z,160
2018-07-26T07:56:03.096Z,150
2018-07-26T07:56:43.439Z,150
2018-07-26T07:57:24.856Z,145
2018-07-26T07:58:06.789Z,145
2018-07-26T07:58:46.829Z,145
2018-07-26T07:59:27.335Z,145
2018-07-26T08:00:08.403Z,145
2018-07-26T08:00:48.202Z,140
2018-07-26T08:01:29.498Z,140
2018-07-26T08:02:09.698Z,140
2018-07-26T08:02:50.391Z,140
2018-07-26T08:03:32.047Z,140
2018-07-26T08:04:12.372Z,135
2018-07-26T08:04:53.219Z,135
2018-07-26T08:05:34.856Z,135
2018-07-26T08:06:15.281Z,135
2018-07-26T08:06:56.951Z,130
2018-07-26T08:07:36.783Z,130
2018-07-26T08:08:18.251Z,130
2018-07-26T08:08:59.391Z,130
2018-07-26T08:09:39.862Z,130
2018-07-26T08:10:20.447Z,125
2018-07-26T08:11:01.872Z,125
2018-07-26T08:11:42.139Z,125
2018-07-26T08:12:22.788Z,125
2018-07-26T08:13:03.415Z,125
2018-07-26T08:13:44.221Z,125
2018-07-26T08:14:25.377Z,125
2018-07-26T08:15:05.594Z,120
2018-07-26T08:15:47.135Z,120
2018-07-26T08:16:27.256Z,120
2018-07-26T08:17:08.881Z,120
2018-07-26T08:17:49.990Z,120
2018-07-26T08:18:30.448Z,120
2018-07-26T08:19:11.109Z,120
2018-07-26T08:19:52.436Z,115
2018-07-26T08:20:33.551Z,115
2018-07-26T08:21:15.052Z,115
2018-07-26T08:21:55.735Z,115
2018-07-26T08:22:36.259Z,115
2018-07-26T08:23:18.392Z,115
2018-07-26T08:23:58.321Z,115
2018-07-26T08:24:39.993Z,115
2018-07-26T08:25:20.524Z,110
2018-07-26T08:26:02.494Z,110
2018-07-26T08:26:45.856Z,110
2018-07-26T08:27:25.904Z,110
2018-07-26T08:28:06.895Z,110
2018-07-26T08:28:47.235Z,110
2018-07-26T08:29:27.924Z,110
2018-07-26T08:30:09.348Z,110
2018-07-26T08:30:50.153Z,110
2018-07-26T08:31:30.707Z,110
2018-07-26T08:32:12.480Z,110
2018-07-26T08:32:53.039Z,110
2018-07-26T08:33:33.604Z,105
2018-07-26T08:34:14.909Z,105
2018-07-26T08:34:55.177Z,105
2018-07-26T08:35:36.349Z,105
2018-07-26T08:36:17.924Z,105
2018-07-26T08:36:58.302Z,105
2018-07-26T08:37:38.772Z,105
2018-07-26T08:38:19.565Z,105
2018-07-26T08:39:00.504Z,105
2018-07-26T08:39:41.030Z,105
2018-07-26T08:40:21.441Z,105
2018-07-26T08:41:02.123Z,105
2018-07-26T08:41:43.667Z,105
2018-07-26T08:42:24.543Z,105
2018-07-26T08:43:06.004Z,105
2018-07-26T08:43:47.545Z,100
2018-07-26T08:44:28.575Z,100
2018-07-26T08:45:09.060Z,100
2018-07-26T08:45:49.565Z,100
2018-07-26T08:46:31.541Z,100
2018-07-26T08:47:11.942Z,100
2018-07-26T08:47:52.496Z,100
2018-07-26T08:48:33.173Z,100
2018-07-26T08:49:14.081Z,100
2018-07-26T08:49:55.086Z,100
2018-07-26T08:50:35.796Z,100
2018-07-26T08:51:18.042Z,100
2018-07-26T08:51:59.551Z,100
2018-07-26T08:52:40.787Z,100
2018-07-26T08:53:22.080Z,100
2018-07-26T08:54:20.997Z,100
2018-07-26T08:55:02.446Z,95
2018-07-26T08:55:43.837Z,95
2018-07-26T08:56:25.298Z,100
2018-07-26T08:57:06.413Z,100
2018-07-26T08:57:47.574Z,95
2018-07-26T08:58:28.973Z,95
2018-07-26T08:59:10.209Z,95
2018-07-26T08:59:50.669Z,95
2018-07-26T09:00:32.350Z,95
2018-07-26T09:01:13.303Z,95
2018-07-26T09:01:54.732Z,95
2018-07-26T09:02:37.539Z,95
2018-07-26T09:03:18.437Z,95
2018-07-26T09:03:58.405Z,95
2018-07-26T09:04:39.629Z,95
2018-07-26T09:05:21.055Z,95
2018-07-26T09:06:02.501Z,95
2018-07-26T09:06:42.671Z,95
2018-07-26T09:07:23.801Z,95
2018-07-26T09:08:04.438Z,95
2018-07-26T09:08:45.183Z,95
2018-07-26T09:09:25.677Z,100
2018-07-26T09:10:06.915Z,95
2018-07-26T09:10:47.091Z,95
2018-07-26T09:11:27.925Z,95
2018-07-26T09:12:09.121Z,90
2018-07-26T09:12:49.873Z,90
2018-07-26T09:13:31.071Z,90
2018-07-26T09:14:11.931Z,90
2018-07-26T09:14:52.175Z,90
2018-07-26T09:15:33.570Z,90
2018-07-26T09:16:15.101Z,90
2018-07-26T09:16:54.940Z,90
2018-07-26T09:17:36.939Z,90
2018-07-26T09:18:18.927Z,90
2018-07-26T09:18:58.921Z,90
2018-07-26T09:19:40.983Z,90
2018-07-26T09:20:21.003Z,90
2018-07-26T09:21:01.856Z,90
2018-07-26T09:21:42.236Z,90
2018-07-26T09:22:23.582Z,90
2018-07-26T09:23:04.335Z,90
2018-07-26T09:23:45.390Z,90
2018-07-26T09:24:26.808Z,90
2018-07-26T09:25:11.695Z,90
2018-07-26T09:25:52.936Z,90
2018-07-26T09:26:33.332Z,90
2018-07-26T09:32:14.739Z,85
2018-07-26T09:32:55.109Z,85
2018-07-26T09:33:37.022Z,85
2018-07-26T09:34:17.403Z,85
2018-07-26T09:34:59.086Z,85
2018-07-26T09:35:40.736Z,85
2018-07-26T09:36:21.820Z,85
2018-07-26T09:37:02.944Z,85
2018-07-26T09:38:37.922Z,80
2018-07-26T09:39:19.176Z,80
2018-07-26T09:39:59.173Z,80
2018-07-26T09:40:40.635Z,80
2018-07-26T09:41:20.334Z,80
2018-07-26T09:42:01.047Z,80
2018-07-26T09:42:41.913Z,80
2018-07-26T09:43:25.161Z,80
2018-07-26T09:44:05.303Z,80
2018-07-26T09:44:47.111Z,80
2018-07-26T09:45:27.698Z,80
2018-07-26T09:46:09.357Z,80
2018-07-26T09:46:50.976Z,80
2018-07-26T09:47:34.727Z,80
2018-07-26T09:55:39.079Z,80
2018-07-26T09:56:20.809Z,80
2018-07-26T09:57:01.221Z,75
2018-07-26T09:57:41.976Z,85
2018-07-26T09:58:22.482Z,85
2018-07-26T09:59:02.929Z,85
2018-07-26T09:59:44.655Z,85
2018-07-26T10:00:25.736Z,85
2018-07-26T10:01:06.901Z,75
2018-07-26T10:01:47.749Z,75
2018-07-26T10:02:28.736Z,75
2018-07-26T10:03:10.628Z,75
2018-07-26T10:03:51.062Z,75
2018-07-26T10:04:31.959Z,75
2018-07-26T10:43:12.630Z,70
2018-07-26T10:43:52.227Z,70
2018-07-26T10:44:33.629Z,70
2018-07-26T10:45:13.124Z,70
2018-07-26T10:45:54.452Z,70
2018-07-26T10:46:34.783Z,70
2018-07-26T10:47:15.110Z,70
2018-07-26T10:47:55.964Z,70
2018-07-26T10:48:38.522Z,70
2018-07-26T10:49:19.120Z,70
2018-07-26T10:50:00.394Z,70
2018-07-26T10:50:41.301Z,65
2018-07-26T10:51:22.253Z,65
2018-07-26T10:54:05.270Z,65
2018-07-26T10:56:20.071Z,65
2018-07-26T10:57:00.814Z,65
2018-07-26T10:57:49.888Z,65
2018-07-26T10:58:30.427Z,65
2018-07-26T10:59:11.433Z,65
2018-07-26T10:59:52.136Z,65
2018-07-26T11:00:34.405Z,65
2018-07-26T11:01:14.752Z,65
2018-07-26T11:01:56.262Z,70
2018-07-26T11:02:36.152Z,65
2018-07-26T11:03:18.262Z,65
2018-07-26T11:03:58.926Z,65
2018-07-26T11:04:39.710Z,65
2018-07-26T11:05:21.936Z,65
2018-07-26T11:06:01.388Z,65
2018-07-26T11:06:42.692Z,65
2018-07-26T11:07:24.289Z,65
2018-07-26T11:08:04.803Z,65
2018-07-26T11:08:45.276Z,65
2018-07-26T11:09:26.938Z,65
2018-07-26T11:12:00.450Z,65
2018-07-26T11:12:40.980Z,65
2018-07-26T11:13:21.449Z,65
2018-07-26T11:14:02.055Z,65
2018-07-26T11:14:42.730Z,65
2018-07-26T11:15:23.372Z,65
2018-07-26T11:18:06.590Z,65
2018-07-26T11:18:47.645Z,65
2018-07-26T11:19:28.133Z,65
2018-07-26T11:20:08.644Z,65
2018-07-26T11:21:35.822Z,65
2018-07-26T11:22:16.261Z,65
2018-07-26T11:28:18.326Z,65
2018-07-26T11:32:56.708Z,45
2018-07-26T11:33:37.133Z,65
2018-07-26T11:37:46.434Z,70
2018-07-26T11:38:26.661Z,70
2018-07-26T11:39:10.322Z,70
2018-07-26T11:40:32.015Z,65
2018-07-26T11:41:12.185Z,65
2018-07-26T11:41:53.497Z,70
2018-07-26T11:42:34.090Z,70
2018-07-26T11:43:21.975Z,70
2018-07-26T11:44:02.897Z,75
2018-07-26T11:44:44.313Z,70
2018-07-26T11:45:24.900Z,70
2018-07-26T11:46:05.262Z,65
2018-07-26T11:46:45.782Z,65
2018-07-26T11:49:02.600Z,65
2018-07-26T11:49:42.937Z,40
2018-07-26T11:50:23.477Z,40
2018-07-26T11:51:04.042Z,45
2018-07-26T11:51:44.456Z,70
2018-07-26T11:52:25.332Z,70
2018-07-26T11:53:07.361Z,70
2018-07-26T11:53:46.742Z,70
2018-07-26T11:54:28.975Z,70
2018-07-26T11:55:10.435Z,70
2018-07-26T11:55:52.428Z,70
2018-07-26T11:56:34.544Z,70
2018-07-26T11:57:16.332Z,70
2018-07-26T11:59:22.193Z,70
2018-07-26T12:06:11.324Z,70
2018-07-26T12:06:52.380Z,65
2018-07-26T12:07:32.505Z,65
2018-07-26T12:11:58.458Z,65
2018-07-26T12:12:39.607Z,65
2018-07-26T12:13:20.201Z,65
2018-07-26T12:14:01.541Z,65
2018-07-26T12:14:42.060Z,65
2018-07-26T12:15:22.653Z,65
2018-07-26T12:16:03.129Z,65
2018-07-26T12:16:43.858Z,65
2018-07-26T12:17:24.580Z,65
2018-07-26T12:18:05.729Z,65
2018-07-26T12:18:46.572Z,65
2018-07-26T12:19:27.103Z,65
2018-07-26T12:20:07.618Z,65
2018-07-26T12:20:48.834Z,65
2018-07-26T12:21:29.131Z,65
2018-07-26T12:22:09.717Z,65
2018-07-26T12:22:50.213Z,65
2018-07-26T12:23:31.588Z,65
2018-07-26T12:24:11.174Z,65
2018-07-26T12:24:51.892Z,65
2018-07-26T12:25:32.722Z,70
2018-07-26T12:26:13.278Z,70
2018-07-26T12:26:55.480Z,70
2018-07-26T12:27:36.116Z,70
2018-07-26T12:28:17.730Z,70
2018-07-26T12:28:58.597Z,70
2018-07-26T12:29:40.101Z,70
2018-07-26T12:30:19.665Z,70
2018-07-26T12:31:00.163Z,70
2018-07-26T12:31:41.747Z,70
2018-07-26T12:32:22.530Z,70
2018-07-26T12:33:04.143Z,70
2018-07-26T12:36:54.975Z,70
2018-07-26T12:37:36.274Z,70
2018-07-26T12:38:18.287Z,70
2018-07-26T12:38:58.395Z,70
2018-07-26T12:39:38.999Z,70
2018-07-26T12:40:19.238Z,70
2018-07-26T12:40:59.767Z,70
2018-07-26T12:41:40.194Z,70
2018-07-26T12:42:20.750Z,70
2018-07-26T12:43:01.110Z,70
2018-07-26T12:43:42.255Z,70
2018-07-26T12:44:22.996Z,70
2018-07-26T12:45:06.167Z,70
2018-07-26T12:45:47.060Z,70
2018-07-26T12:46:28.032Z,70
2018-07-26T12:47:08.636Z,70
2018-07-26T12:47:49.618Z,70
2018-07-26T12:48:30.828Z,70
2018-07-26T12:49:12.092Z,70
2018-07-26T12:49:52.727Z,70
2018-07-26T12:50:33.888Z,70
2018-07-26T12:51:14.821Z,70
2018-07-26T12:51:55.517Z,70
2018-07-26T12:52:37.045Z,70
2018-07-26T12:53:17.567Z,70
2018-07-26T12:53:59.455Z,70
2018-07-26T12:54:40.567Z,70
2018-07-26T12:55:21.775Z,75
2018-07-26T12:56:02.476Z,75
2018-07-26T12:56:47.759Z,75
2018-07-26T12:57:30.655Z,75
2018-07-26T12:58:10.427Z,70
2018-07-26T12:58:51.324Z,70
2018-07-26T12:59:34.912Z,70
2018-07-26T13:00:17.076Z,75
2018-07-26T13:00:58.760Z,75
2018-07-26T13:01:40.003Z,75
2018-07-26T13:02:20.847Z,70
2018-07-26T13:03:01.564Z,75
2018-07-26T13:03:43.546Z,75
2018-07-26T13:04:24.315Z,75
2018-07-26T13:05:04.766Z,70
2018-07-26T13:05:46.608Z,70
2018-07-26T13:06:27.472Z,70
2018-07-26T13:07:08.122Z,70
2018-07-26T13:07:48.912Z,70
2018-07-26T13:08:33.526Z,70
2018-07-26T13:09:14.168Z,70
2018-07-26T13:09:55.455Z,70
2018-07-26T13:10:37.152Z,70
2018-07-26T13:11:17.752Z,70
2018-07-26T13:11:58.252Z,70
2018-07-26T13:12:38.737Z,70
2018-07-26T13:13:19.501Z,65
2018-07-26T13:14:00.310Z,65
2018-07-26T13:14:40.988Z,65
2018-07-26T13:15:23.309Z,65
2018-07-26T13:17:11.468Z,65
2018-07-26T13:17:57.878Z,65
2018-07-26T13:18:39.761Z,65
2018-07-26T13:19:20.606Z,65
2018-07-26T13:20:01.662Z,65
2018-07-26T13:20:45.081Z,65
2018-07-26T13:21:25.500Z,65
2018-07-26T13:38:50.663Z,50
2018-07-26T13:39:34.617Z,50
2018-07-26T13:40:22.629Z,50
2018-07-26T13:41:03.927Z,50
2018-07-26T13:41:44.736Z,50
2018-07-26T13:42:26.500Z,50
2018-07-26T13:43:07.973Z,50
2018-07-26T13:43:48.291Z,55
2018-07-26T13:44:28.971Z,60
2018-07-26T13:45:09.770Z,45
2018-07-26T13:45:50.331Z,60
2018-07-26T13:46:31.025Z,55
2018-07-26T13:47:13.458Z,65
2018-07-26T13:47:53.849Z,65
2018-07-26T13:48:34.473Z,65
2018-07-26T13:49:19.033Z,50
2018-07-26T13:49:59.758Z,50
2018-07-26T13:50:42.103Z,50
2018-07-26T13:51:22.496Z,50
2018-07-26T13:52:03.478Z,60
2018-07-26T13:52:44.555Z,55
2018-07-26T13:53:41.088Z,50
2018-07-26T13:54:24.124Z,55
2018-07-26T13:55:04.290Z,50
2018-07-26T13:55:44.761Z,50
2018-07-26T13:56:26.476Z,50
2018-07-26T14:00:36.656Z,70
2018-07-26T14:01:18.546Z,70
2018-07-26T14:02:00.949Z,70
2018-07-26T14:02:42.080Z,70
2018-07-26T14:03:22.592Z,70
2018-07-26T14:04:03.237Z,70
2018-07-26T14:04:43.820Z,65
2018-07-26T14:05:24.344Z,55
2018-07-26T14:06:05.657Z,50
2018-07-26T14:06:45.967Z,50
2018-07-26T14:07:26.452Z,50
2018-07-26T14:08:06.988Z,50
2018-07-26T14:08:47.425Z,50
2018-07-26T14:09:28.207Z,60
2018-07-26T14:10:09.129Z,65
2018-07-26T14:10:54.730Z,65
2018-07-26T14:11:35.333Z,65
2018-07-26T14:12:17.647Z,65
2018-07-26T14:12:58.103Z,65
2018-07-26T14:13:41.994Z,65
2018-07-26T14:14:22.409Z,60
2018-07-26T14:15:02.892Z,60
2018-07-26T14:15:43.328Z,55
2018-07-26T14:16:24.616Z,50
2018-07-26T14:17:05.322Z,50
2018-07-26T14:23:08.766Z,75
2018-07-26T14:23:49.328Z,75
2018-07-26T14:24:29.769Z,75
2018-07-26T14:26:44.886Z,70
2018-07-26T14:33:28.532Z,65
2018-07-26T14:34:11.498Z,65
2018-07-26T14:34:53.808Z,60
2018-07-26T14:35:36.227Z,60
2018-07-26T14:37:54.266Z,45
2018-07-26T14:38:34.833Z,45
2018-07-26T14:39:15.743Z,45
2018-07-26T14:39:56.292Z,60
2018-07-26T14:40:36.835Z,55
2018-07-26T14:41:17.499Z,55
2018-07-26T14:41:58.088Z,55
2018-07-26T14:42:39.253Z,55
2018-07-26T14:43:21.824Z,55
2018-07-26T14:44:02.240Z,50
2018-07-26T14:44:43.051Z,45
2018-07-26T14:45:23.850Z,50
2018-07-26T14:46:04.441Z,50
2018-07-26T14:46:45.356Z,45
2018-07-26T14:47:25.985Z,50
2018-07-26T14:48:07.212Z,50
2018-07-26T14:48:47.737Z,45
2018-07-26T14:49:28.118Z,45
2018-07-26T14:50:08.610Z,45
2018-07-26T14:50:49.109Z,45
2018-07-26T14:51:29.593Z,45
2018-07-26T14:52:09.964Z,35
2018-07-26T14:52:50.415Z,35
2018-07-26T14:53:31.043Z,35
2018-07-26T14:54:11.751Z,35
2018-07-26T14:54:52.796Z,35
2018-07-26T14:55:33.859Z,35
2018-07-26T14:56:14.288Z,35
2018-07-26T14:56:55.731Z,35
2018-07-26T14:57:37.659Z,35
2018-07-26T14:58:19.563Z,35
2018-07-26T15:02:32.574Z,40
2018-07-26T15:03:13.146Z,45
2018-07-26T15:03:53.844Z,45
2018-07-26T15:04:35.462Z,40
2018-07-26T15:05:15.227Z,40
2018-07-26T15:05:56.724Z,40
2018-07-26T15:06:36.812Z,40
2018-07-26T15:07:17.626Z,30
2018-07-26T15:09:52.533Z,30
2018-07-26T15:10:33.016Z,30
2018-07-26T15:11:13.633Z,30
2018-07-26T15:11:55.295Z,30
2018-07-26T15:12:34.692Z,30
2018-07-26T15:13:15.452Z,30
2018-07-26T15:13:55.878Z,30
2018-07-26T15:14:37.439Z,30
2018-07-26T15:15:18.692Z,25
2018-07-26T15:16:00.309Z,25
2018-07-26T15:16:41.039Z,25
2018-07-26T15:17:21.570Z,25
2018-07-26T15:18:05.229Z,25
2018-07-26T15:18:44.984Z,25
2018-07-26T15:19:26.349Z,25
2018-07-26T15:20:06.470Z,25
2018-07-26T15:20:46.978Z,25
2018-07-26T15:21:27.733Z,25
2018-07-26T15:22:08.696Z,25
2018-07-26T15:23:56.378Z,25
2018-07-26T15:24:38.806Z,25
2018-07-26T15:25:19.489Z,25
2018-07-26T15:26:00.822Z,25
2018-07-26T15:26:41.333Z,25
2018-07-26T15:27:22.727Z,25
2018-07-26T15:28:04.324Z,25
2018-07-26T15:28:46.772Z,20
2018-07-26T15:29:27.774Z,20
2018-07-26T15:30:08.883Z,20
2018-07-26T15:30:48.839Z,20
2018-07-26T15:31:29.248Z,20
2018-07-26T15:32:14.113Z,20
2018-07-26T15:32:55.874Z,20
2018-07-26T15:33:37.648Z,20
2018-07-26T15:34:18.336Z,20
2018-07-26T15:35:01.799Z,20
2018-07-26T15:35:42.378Z,20
2018-07-26T15:36:23.481Z,20
2018-07-26T15:37:03.971Z,20
2018-07-26T15:37:45.881Z,20
2018-07-26T15:56:47.582Z,20
2018-07-26T15:57:28.750Z,20
2018-07-26T15:58:09.730Z,20
2018-07-26T15:58:50.354Z,20
2018-07-26T15:59:31.960Z,20
2018-07-26T16:00:14.007Z,20
2018-07-26T16:00:54.301Z,20
2018-07-26T16:01:35.284Z,20
2018-07-26T16:02:16.081Z,20
2018-07-26T16:02:57.425Z,20
2018-07-26T16:03:38.186Z,20
2018-07-26T16:04:18.873Z,20
2018-07-26T16:04:59.576Z,20
2018-07-26T16:05:42.192Z,20
2018-07-26T16:06:22.702Z,20
2018-07-26T16:07:03.992Z,20
2018-07-26T16:07:44.295Z,20
2018-07-26T16:45:57.492Z,15
2018-07-26T16:48:13.728Z,15
2018-07-26T16:48:54.145Z,15
2018-07-26T16:51:22.408Z,15
2018-07-26T16:52:02.797Z,15
2018-07-26T16:54:15.816Z,15
2018-07-26T16:58:18.189Z,15
2018-07-26T17:13:47.340Z,15
2018-07-26T19:15:11.620Z,0
2018-07-26T19:16:04.554Z,0
2018-07-26T19:16:58.631Z,0
2018-07-26T19:19:49.419Z,0
2018-07-26T19:20:53.075Z,0
2018-07-26T19:21:50.636Z,0
2018-07-26T19:22:44.336Z,0
2018-07-26T19:43:36.849Z,0
2018-07-26T19:44:24.690Z,0
2018-07-26T19:45:16.798Z,0
2018-07-26T19:46:08.827Z,0
2018-07-26T19:51:44.161Z,0
2018-07-26T19:52:22.103Z,0
2018-07-26T19:53:03.720Z,0
2018-07-26T19:53:45.053Z,0
2018-07-26T19:54:25.385Z,0
2018-07-26T19:55:06.733Z,0
2018-07-26T19:55:47.108Z,0
2018-07-26T19:56:27.520Z,0
2018-07-26T19:57:07.937Z,0
2018-07-26T19:57:48.862Z,0
2018-07-26T19:58:29.233Z,0
2018-07-26T19:59:09.730Z,0
2018-07-26T19:59:50.134Z,0
2018-07-26T20:00:30.856Z,0
2018-07-26T20:01:11.287Z,0
2018-07-26T20:01:51.899Z,0
2018-07-26T20:02:32.190Z,0
2018-07-26T20:03:12.883Z,0
2018-07-26T20:03:53.344Z,0
